createdAt,value
2024-04-03T00:00:30.336Z, 30.31
2024-04-03T00:01:30.328Z, 30.30
2024-04-03T00:02:30.407Z, 30.29
2024-04-03T00:03:30.377Z, 30.29
2024-04-03T00:04:30.378Z, 30.28
2024-04-03T00:05:30.376Z, 30.28
2024-04-03T00:06:30.410Z, 30.26
2024-04-03T00:07:30.423Z, 30.24
2024-04-03T00:08:30.423Z, 30.25
2024-04-03T00:09:30.470Z, 30.25
2024-04-03T00:10:31.470Z, 30.25
2024-04-03T00:11:30.454Z, 30.25
2024-04-03T00:12:30.536Z, 30.25
2024-04-03T00:13:30.511Z, 30.25
2024-04-03T00:14:30.512Z, 30.24
2024-04-03T00:15:30.519Z, 30.23
2024-04-03T00:16:30.537Z, 30.21
2024-04-03T00:17:30.668Z, 30.20
2024-04-03T00:18:30.579Z, 30.19
2024-04-03T00:19:30.627Z, 30.21
2024-04-03T00:20:30.611Z, 30.19
2024-04-03T00:21:30.618Z, 30.17
2024-04-03T00:22:30.635Z, 30.18
2024-04-03T00:23:30.628Z, 30.17
2024-04-03T00:24:30.703Z, 30.18
2024-04-03T00:25:30.690Z, 30.20
2024-04-03T00:26:30.681Z, 30.17
2024-04-03T00:27:30.691Z, 30.15
2024-04-03T00:28:30.702Z, 30.15
2024-04-03T00:29:30.780Z, 30.14
2024-04-03T00:30:30.752Z, 30.14
2024-04-03T00:31:30.738Z, 30.13
2024-04-03T00:32:30.835Z, 30.14
2024-04-03T00:33:30.779Z, 30.11
2024-04-03T00:34:30.819Z, 30.09
2024-04-03T00:35:30.794Z, 30.09
2024-04-03T00:36:30.800Z, 30.07
2024-04-03T00:37:30.789Z, 30.07
2024-04-03T00:38:30.806Z, 30.08
2024-04-03T00:39:30.804Z, 30.09
2024-04-03T00:40:30.815Z, 30.08
2024-04-03T00:41:30.905Z, 30.09
2024-04-03T00:42:30.843Z, 30.07
2024-04-03T00:43:30.862Z, 30.07
2024-04-03T00:44:30.967Z, 30.08
2024-04-03T00:45:30.911Z, 30.08
2024-04-03T00:46:30.992Z, 30.08
2024-04-03T00:47:30.947Z, 30.07
2024-04-03T00:48:30.949Z, 30.08
2024-04-03T00:49:31.025Z, 30.05
2024-04-03T00:50:30.987Z, 30.05
2024-04-03T00:51:31.014Z, 30.08
2024-04-03T00:52:30.989Z, 30.08
2024-04-03T00:53:31.027Z, 30.06
2024-04-03T00:54:31.001Z, 30.04
2024-04-03T00:55:31.008Z, 30.04
2024-04-03T00:56:31.018Z, 30.02
2024-04-03T00:57:31.023Z, 30.01
2024-04-03T00:58:31.069Z, 30.02
2024-04-03T00:59:31.048Z, 30.00
2024-04-03T01:00:31.198Z, 30.00
2024-04-03T01:01:31.089Z, 29.98
2024-04-03T01:02:31.092Z, 29.98
2024-04-03T01:03:31.091Z, 30.03
2024-04-03T01:04:31.102Z, 30.01
2024-04-03T01:05:31.121Z, 30.02
2024-04-03T01:06:31.136Z, 30.00
2024-04-03T01:07:31.212Z, 29.96
2024-04-03T01:08:31.200Z, 29.93
2024-04-03T01:09:31.255Z, 29.92
2024-04-03T01:10:31.230Z, 29.92
2024-04-03T01:11:31.232Z, 29.91
2024-04-03T01:12:31.312Z, 29.93
2024-04-03T01:13:31.272Z, 29.93
2024-04-03T01:14:31.323Z, 29.93
2024-04-03T01:15:31.289Z, 29.91
2024-04-03T01:16:31.375Z, 29.94
2024-04-03T01:17:31.383Z, 29.94
2024-04-03T01:18:31.387Z, 29.90
2024-04-03T01:19:31.356Z, 29.92
2024-04-03T01:20:31.372Z, 29.91
2024-04-03T01:21:31.363Z, 29.90
2024-04-03T01:22:31.374Z, 29.87
2024-04-03T01:23:31.428Z, 29.89
2024-04-03T01:24:31.395Z, 29.86
2024-04-03T01:25:47.198Z, 29.86
2024-04-03T01:26:31.417Z, 29.85
2024-04-03T01:27:31.446Z, 29.85
2024-04-03T01:28:31.431Z, 29.85
2024-04-03T01:29:31.417Z, 29.85
2024-04-03T01:30:31.442Z, 29.84
2024-04-03T01:31:31.444Z, 29.88
2024-04-03T01:32:31.591Z, 29.86
2024-04-03T01:33:31.506Z, 29.84
2024-04-03T01:34:31.558Z, 29.83
2024-04-03T01:35:31.562Z, 29.81
2024-04-03T01:36:31.561Z, 29.81
2024-04-03T01:37:31.549Z, 29.81
2024-04-03T01:38:31.544Z, 29.80
2024-04-03T01:39:31.572Z, 29.78
2024-04-03T01:40:31.564Z, 29.80
2024-04-03T01:41:31.659Z, 29.79
2024-04-03T01:42:31.627Z, 29.77
2024-04-03T01:43:31.670Z, 29.77
2024-04-03T01:44:31.649Z, 29.81
2024-04-03T01:45:31.642Z, 29.77
2024-04-03T01:46:31.717Z, 29.75
2024-04-03T01:47:31.724Z, 29.73
2024-04-03T01:48:31.758Z, 29.75
2024-04-03T01:49:31.727Z, 29.71
2024-04-03T01:50:31.708Z, 29.70
2024-04-03T01:51:31.715Z, 29.66
2024-04-03T01:52:31.706Z, 29.67
2024-04-03T01:53:31.777Z, 29.68
2024-04-03T01:54:31.803Z, 29.69
2024-04-03T01:55:31.760Z, 29.71
2024-04-03T01:56:31.838Z, 29.71
2024-04-03T01:57:31.812Z, 29.72
2024-04-03T01:58:31.791Z, 29.70
2024-04-03T01:59:31.791Z, 29.68
2024-04-03T02:00:31.824Z, 29.64
2024-04-03T02:01:31.836Z, 29.62
2024-04-03T02:02:31.853Z, 29.61
2024-04-03T02:03:31.922Z, 29.61
2024-04-03T02:04:31.914Z, 29.63
2024-04-03T02:05:31.950Z, 29.60
2024-04-03T02:06:31.924Z, 29.60
2024-04-03T02:07:31.931Z, 29.65
2024-04-03T02:08:31.929Z, 29.65
2024-04-03T02:09:31.936Z, 29.63
2024-04-03T02:10:32.004Z, 29.63
2024-04-03T02:11:31.993Z, 29.64
2024-04-03T02:12:32.005Z, 29.66
2024-04-03T02:13:31.990Z, 29.66
2024-04-03T02:14:32.006Z, 29.63
2024-04-03T02:15:32.013Z, 29.63
2024-04-03T02:16:32.011Z, 29.62
2024-04-03T02:17:32.145Z, 29.60
2024-04-03T02:18:32.054Z, 29.58
2024-04-03T02:19:32.146Z, 29.57
2024-04-03T02:20:32.121Z, 29.60
2024-04-03T02:21:32.126Z, 29.59
2024-04-03T02:22:32.118Z, 29.59
2024-04-03T02:23:36.500Z, 29.57
2024-04-03T02:24:32.163Z, 29.56
2024-04-03T02:25:32.153Z, 29.55
2024-04-03T02:26:32.147Z, 29.54
2024-04-03T02:27:32.153Z, 29.54
2024-04-03T02:28:32.169Z, 29.52
2024-04-03T02:29:32.253Z, 29.53
2024-04-03T02:30:32.222Z, 29.51
2024-04-03T02:31:32.241Z, 29.51
2024-04-03T02:32:32.304Z, 29.52
2024-04-03T02:33:32.271Z, 29.52
2024-04-03T02:34:32.340Z, 29.52
2024-04-03T02:35:32.332Z, 29.53
2024-04-03T02:36:32.347Z, 29.50
2024-04-03T02:37:32.331Z, 29.48
2024-04-03T02:38:32.308Z, 29.48
2024-04-03T02:39:32.316Z, 29.46
2024-04-03T02:40:32.323Z, 29.45
2024-04-03T02:41:32.335Z, 29.45
2024-04-03T02:42:32.365Z, 29.45
2024-04-03T02:43:32.367Z, 29.44
2024-04-03T02:44:32.370Z, 29.43
2024-04-03T02:45:32.399Z, 29.42
2024-04-03T02:46:32.463Z, 29.41
2024-04-03T02:47:32.443Z, 29.41
2024-04-03T02:48:32.444Z, 29.42
2024-04-03T02:49:32.451Z, 29.42
2024-04-03T02:50:32.446Z, 29.43
2024-04-03T02:51:32.524Z, 29.43
2024-04-03T02:52:32.540Z, 29.43
2024-04-03T02:53:32.566Z, 29.44
2024-04-03T02:54:32.562Z, 29.43
2024-04-03T02:55:32.579Z, 29.40
2024-04-03T02:56:32.555Z, 29.39
2024-04-03T02:57:32.555Z, 29.37
2024-04-03T02:58:32.550Z, 29.38
2024-04-03T02:59:32.556Z, 29.40
2024-04-03T03:00:32.639Z, 29.41
2024-04-03T03:01:32.597Z, 29.41
2024-04-03T03:02:32.595Z, 29.40
2024-04-03T03:03:32.713Z, 29.38
2024-04-03T03:04:32.644Z, 29.36
2024-04-03T03:05:32.686Z, 29.34
2024-04-03T03:06:32.675Z, 29.34
2024-04-03T03:07:32.676Z, 29.34
2024-04-03T03:08:32.699Z, 29.33
2024-04-03T03:09:34.328Z, 29.29
2024-04-03T03:10:32.727Z, 29.29
2024-04-03T03:11:32.710Z, 29.30
2024-04-03T03:12:32.712Z, 29.30
2024-04-03T03:13:32.756Z, 29.29
2024-04-03T03:14:32.733Z, 29.27
2024-04-03T03:15:32.771Z, 29.28
2024-04-03T03:16:32.754Z, 29.27
2024-04-03T03:17:32.791Z, 29.28
2024-04-03T03:18:32.783Z, 29.29
2024-04-03T03:19:32.778Z, 29.28
2024-04-03T03:20:32.836Z, 29.26
2024-04-03T03:21:32.827Z, 29.26
2024-04-03T03:22:32.830Z, 29.25
2024-04-03T03:23:32.940Z, 29.26
2024-04-03T03:24:32.926Z, 29.24
2024-04-03T03:25:32.943Z, 29.23
2024-04-03T03:26:32.969Z, 29.24
2024-04-03T03:27:32.927Z, 29.24
2024-04-03T03:28:32.974Z, 29.22
2024-04-03T03:29:32.952Z, 29.21
2024-04-03T03:30:32.958Z, 29.18
2024-04-03T03:31:32.955Z, 29.58
2024-04-03T03:32:33.036Z, 30.76
2024-04-03T03:33:33.019Z, 32.11
2024-04-03T03:34:33.029Z, 32.82
2024-04-03T03:35:33.032Z, 33.17
2024-04-03T03:36:33.024Z, 33.57
2024-04-03T03:37:33.070Z, 33.84
2024-04-03T03:38:33.056Z, 34.03
2024-04-03T03:39:33.110Z, 34.25
2024-04-03T03:40:33.117Z, 34.48
2024-04-03T03:41:33.103Z, 34.68
2024-04-03T03:42:33.155Z, 34.90
2024-04-03T03:43:33.124Z, 36.66
2024-04-03T03:44:33.126Z, 43.76
2024-04-03T03:45:33.122Z, 47.21
2024-04-03T03:46:33.128Z, 45.35
2024-04-03T03:47:33.193Z, 43.41
2024-04-03T03:48:33.171Z, 41.70
2024-04-03T03:49:33.187Z, 40.20
2024-04-03T03:50:33.194Z, 39.14
2024-04-03T03:51:33.208Z, 38.28
2024-04-03T03:52:33.287Z, 37.76
2024-04-03T03:53:33.267Z, 37.43
2024-04-03T03:54:33.286Z, 37.24
2024-04-03T03:55:33.274Z, 37.14
2024-04-03T03:57:33.343Z, 37.00
2024-04-03T03:58:33.331Z, 36.95
2024-04-03T03:59:33.389Z, 36.91
2024-04-03T04:00:33.383Z, 36.88
2024-04-03T04:01:33.351Z, 36.68
2024-04-03T04:02:33.348Z, 41.57
2024-04-03T04:03:33.357Z, 47.88
2024-04-03T04:04:33.345Z, 51.07
2024-04-03T04:05:33.350Z, 54.22
2024-04-03T04:06:33.381Z, 57.77
2024-04-03T04:07:33.382Z, 64.64
2024-04-03T04:08:33.488Z, 60.52
2024-04-03T04:09:33.467Z, 52.47
2024-04-03T04:10:33.458Z, 52.80
2024-04-03T04:11:33.438Z, 53.79
2024-04-03T04:12:33.443Z, 56.08
2024-04-03T04:13:33.464Z, 59.24
2024-04-03T04:14:33.472Z, 68.63
2024-04-03T04:15:33.537Z, 58.73
2024-04-03T04:16:33.519Z, 53.45
2024-04-03T04:17:33.615Z, 54.09
2024-04-03T04:18:33.547Z, 55.47
2024-04-03T04:19:33.578Z, 58.24
2024-04-03T04:20:33.567Z, 62.94
2024-04-03T04:21:36.299Z, 65.39
2024-04-03T04:22:33.647Z, 55.21
2024-04-03T04:23:33.618Z, 53.84
2024-04-03T04:24:33.692Z, 54.61
2024-04-03T04:25:33.677Z, 55.43
2024-04-03T04:26:33.719Z, 56.26
2024-04-03T04:27:33.695Z, 57.16
2024-04-03T04:28:34.034Z, 56.60
2024-04-03T04:29:33.699Z, 55.77
2024-04-03T04:30:33.704Z, 54.98
2024-04-03T04:31:33.705Z, 54.30
2024-04-03T04:32:33.761Z, 53.88
2024-04-03T04:33:33.732Z, 53.50
2024-04-03T04:34:33.743Z, 53.04
2024-04-03T04:35:33.737Z, 52.56
2024-04-03T04:36:33.731Z, 52.07
2024-04-03T04:37:33.829Z, 51.57
2024-04-03T04:38:33.804Z, 51.11
2024-04-03T04:39:33.790Z, 50.63
2024-04-03T04:40:33.815Z, 50.22
2024-04-03T04:41:33.808Z, 49.86
2024-04-03T04:42:33.808Z, 49.49
2024-04-03T04:43:33.806Z, 49.17
2024-04-03T04:44:33.824Z, 48.84
2024-04-03T04:45:33.825Z, 48.55
2024-04-03T04:46:33.897Z, 48.31
2024-04-03T04:47:33.943Z, 47.88
2024-04-03T04:48:33.977Z, 47.52
2024-04-03T04:49:33.920Z, 46.95
2024-04-03T04:50:33.941Z, 46.40
2024-04-03T04:51:33.992Z, 45.89
2024-04-03T04:52:33.978Z, 45.29
2024-04-03T04:53:34.001Z, 44.74
2024-04-03T04:54:33.983Z, 44.17
2024-04-03T04:55:34.038Z, 43.69
2024-04-03T04:56:34.001Z, 43.26
2024-04-03T04:57:34.002Z, 42.89
2024-04-03T04:58:34.006Z, 42.62
2024-04-03T04:59:33.997Z, 42.36
2024-04-03T05:00:34.092Z, 42.15
2024-04-03T05:01:34.052Z, 42.03
2024-04-03T05:02:34.091Z, 41.91
2024-04-03T05:03:34.100Z, 41.80
2024-04-03T05:04:34.072Z, 41.67
2024-04-03T05:05:34.155Z, 41.56
2024-04-03T05:06:34.121Z, 41.46
2024-04-03T05:07:34.191Z, 41.37
2024-04-03T05:08:34.163Z, 41.33
2024-04-03T05:09:34.176Z, 41.26
2024-04-03T05:10:34.163Z, 41.19
2024-04-03T05:11:34.154Z, 41.12
2024-04-03T05:12:34.237Z, 41.06
2024-04-03T05:13:34.225Z, 40.98
2024-04-03T05:14:34.220Z, 40.94
2024-04-03T05:15:34.255Z, 40.88
2024-04-03T05:16:34.249Z, 40.85
2024-04-03T05:17:34.297Z, 40.78
2024-04-03T05:18:34.258Z, 40.72
2024-04-03T05:19:34.311Z, 40.66
2024-04-03T05:20:34.303Z, 40.61
2024-04-03T05:21:34.307Z, 40.57
2024-04-03T05:22:34.300Z, 40.51
2024-04-03T05:23:34.304Z, 40.43
2024-04-03T05:24:34.293Z, 40.38
2024-04-03T05:25:34.304Z, 40.31
2024-04-03T05:26:34.407Z, 40.26
2024-04-03T05:27:34.355Z, 40.18
2024-04-03T05:28:34.366Z, 40.07
2024-04-03T05:29:34.370Z, 39.97
2024-04-03T05:30:34.398Z, 39.86
2024-04-03T05:31:34.477Z, 39.77
2024-04-03T05:32:34.532Z, 39.69
2024-04-03T05:33:34.477Z, 39.60
2024-04-03T05:34:34.456Z, 39.49
2024-04-03T05:35:34.463Z, 39.38
2024-04-03T05:36:34.470Z, 39.25
2024-04-03T05:37:34.474Z, 39.13
2024-04-03T05:38:34.558Z, 38.98
2024-04-03T05:39:34.531Z, 38.83
2024-04-03T05:40:34.525Z, 38.65
2024-04-03T05:41:34.524Z, 38.48
2024-04-03T05:42:34.529Z, 38.29
2024-04-03T05:43:34.556Z, 38.08
2024-04-03T05:44:34.582Z, 37.99
2024-04-03T05:45:34.632Z, 37.86
2024-04-03T05:46:34.584Z, 37.75
2024-04-03T05:47:34.668Z, 37.62
2024-04-03T05:48:34.659Z, 37.50
2024-04-03T05:49:34.669Z, 37.40
2024-04-03T05:50:34.657Z, 37.30
2024-04-03T05:51:34.660Z, 37.18
2024-04-03T05:52:34.668Z, 37.08
2024-04-03T05:53:34.668Z, 36.99
2024-04-03T05:54:34.751Z, 36.89
2024-04-03T05:55:34.723Z, 36.78
2024-04-03T05:56:34.719Z, 36.84
2024-04-03T05:57:34.713Z, 41.98
2024-04-03T05:58:34.734Z, 48.66
2024-04-03T05:59:34.762Z, 52.69
2024-04-03T06:00:34.766Z, 54.39
2024-04-03T06:01:34.802Z, 54.67
2024-04-03T06:02:34.785Z, 53.95
2024-04-03T06:03:34.854Z, 52.52
2024-04-03T06:04:34.825Z, 51.91
2024-04-03T06:05:34.861Z, 51.37
2024-04-03T06:06:34.836Z, 50.89
2024-04-03T06:07:34.829Z, 50.44
2024-04-03T06:08:34.889Z, 50.02
2024-04-03T06:09:34.858Z, 49.63
2024-04-03T06:10:34.938Z, 49.26
2024-04-03T06:11:34.918Z, 48.90
2024-04-03T06:12:34.945Z, 48.55
2024-04-03T06:13:34.948Z, 48.22
2024-04-03T06:14:34.972Z, 47.91
2024-04-03T06:15:34.943Z, 47.66
2024-04-03T06:16:34.937Z, 47.38
2024-04-03T06:17:34.947Z, 47.14
2024-04-03T06:18:34.949Z, 46.90
2024-04-03T06:19:34.997Z, 46.68
2024-04-03T06:20:34.984Z, 46.46
2024-04-03T06:21:35.050Z, 46.27
2024-04-03T06:22:35.022Z, 46.08
2024-04-03T06:23:35.028Z, 45.86
2024-04-03T06:24:35.095Z, 45.70
2024-04-03T06:25:35.091Z, 45.53
2024-04-03T06:26:35.146Z, 45.36
2024-04-03T06:27:35.132Z, 45.16
2024-04-03T06:28:35.173Z, 44.98
2024-04-03T06:29:35.130Z, 44.81
2024-04-03T06:30:35.137Z, 44.64
2024-04-03T06:31:35.158Z, 44.48
2024-04-03T06:32:35.223Z, 44.35
2024-04-03T06:33:35.139Z, 44.16
2024-04-03T06:34:35.171Z, 44.03
2024-04-03T06:35:35.198Z, 43.91
2024-04-03T06:36:35.187Z, 43.76
2024-04-03T06:37:35.244Z, 43.62
2024-04-03T06:38:35.239Z, 43.50
2024-04-03T06:39:35.235Z, 43.37
2024-04-03T06:40:35.246Z, 43.25
2024-04-03T06:41:35.252Z, 43.14
2024-04-03T06:42:35.256Z, 43.01
2024-04-03T06:43:35.241Z, 42.89
2024-04-03T06:44:35.331Z, 42.78
2024-04-03T06:45:35.301Z, 42.67
2024-04-03T06:46:35.382Z, 42.53
2024-04-03T06:47:35.375Z, 42.45
2024-04-03T06:48:35.333Z, 42.33
2024-04-03T06:49:35.365Z, 42.25
2024-04-03T06:50:35.344Z, 42.14
2024-04-03T06:51:35.427Z, 42.04
2024-04-03T06:52:35.404Z, 41.94
2024-04-03T06:53:35.489Z, 41.81
2024-04-03T06:54:35.427Z, 41.75
2024-04-03T06:55:35.452Z, 41.66
2024-04-03T06:56:35.445Z, 41.56
2024-04-03T06:57:35.468Z, 41.45
2024-04-03T06:58:35.509Z, 41.35
2024-04-03T06:59:35.499Z, 41.23
2024-04-03T07:00:35.493Z, 41.17
2024-04-03T07:01:35.483Z, 41.06
2024-04-03T07:02:35.716Z, 40.95
2024-04-03T07:03:35.499Z, 40.84
2024-04-03T07:04:35.544Z, 40.77
2024-04-03T07:05:35.527Z, 40.73
2024-04-03T07:06:35.510Z, 40.67
2024-04-03T07:07:35.588Z, 40.60
2024-04-03T07:08:35.566Z, 40.48
2024-04-03T07:09:35.596Z, 40.45
2024-04-03T07:10:35.693Z, 40.36
2024-04-03T07:11:35.585Z, 40.28
2024-04-03T07:12:35.596Z, 40.19
2024-04-03T07:13:35.596Z, 40.10
2024-04-03T07:14:35.660Z, 40.07
2024-04-03T07:15:35.640Z, 39.98
2024-04-03T07:16:36.139Z, 39.94
2024-04-03T07:17:35.681Z, 39.84
2024-04-03T07:18:35.739Z, 39.83
2024-04-03T07:19:35.697Z, 39.74
2024-04-03T07:20:35.760Z, 39.68
2024-04-03T07:21:35.726Z, 39.64
2024-04-03T07:22:35.734Z, 39.56
2024-04-03T07:23:35.726Z, 39.53
2024-04-03T07:24:35.725Z, 39.46
2024-04-03T07:25:36.068Z, 39.41
2024-04-03T07:26:35.783Z, 39.33
2024-04-03T07:27:35.852Z, 39.28
2024-04-03T07:28:35.834Z, 39.20
2024-04-03T07:29:35.820Z, 39.16
2024-04-03T07:30:35.834Z, 39.09
2024-04-03T07:31:35.823Z, 39.02
2024-04-03T07:32:35.871Z, 39.04
2024-04-03T07:33:35.839Z, 38.98
2024-04-03T07:34:35.924Z, 38.92
2024-04-03T07:35:35.892Z, 38.83
2024-04-03T07:36:35.887Z, 38.79
2024-04-03T07:37:35.910Z, 38.78
2024-04-03T07:38:35.908Z, 38.74
2024-04-03T07:39:35.979Z, 38.70
2024-04-03T07:40:35.974Z, 38.59
2024-04-03T07:41:35.965Z, 38.52
2024-04-03T07:42:35.953Z, 38.49
2024-04-03T07:43:35.968Z, 38.43
2024-04-03T07:44:35.977Z, 38.38
2024-04-03T07:45:35.998Z, 38.33
2024-04-03T07:46:36.110Z, 38.31
2024-04-03T07:47:36.052Z, 38.32
2024-04-03T07:48:36.111Z, 38.24
2024-04-03T07:49:36.071Z, 38.15
2024-04-03T07:50:36.100Z, 38.10
2024-04-03T07:51:36.079Z, 38.07
2024-04-03T07:52:36.081Z, 38.04
2024-04-03T07:53:36.147Z, 38.00
2024-04-03T07:54:36.125Z, 37.97
2024-04-03T07:55:36.122Z, 37.97
2024-04-03T07:56:36.140Z, 37.93
2024-04-03T07:57:36.136Z, 37.85
2024-04-03T07:58:36.214Z, 37.82
2024-04-03T07:59:36.186Z, 37.76
2024-04-03T08:00:36.289Z, 37.72
2024-04-03T08:01:36.199Z, 37.71
2024-04-03T08:02:37.607Z, 37.67
2024-04-03T08:03:36.233Z, 37.66
2024-04-03T08:04:36.217Z, 37.64
2024-04-03T08:05:36.224Z, 37.60
2024-04-03T08:06:36.242Z, 37.55
2024-04-03T08:07:36.343Z, 37.56
2024-04-03T08:08:36.368Z, 37.55
2024-04-03T08:09:36.336Z, 37.50
2024-04-03T08:10:36.324Z, 37.46
2024-04-03T08:11:36.315Z, 37.46
2024-04-03T08:12:36.347Z, 37.46
2024-04-03T08:13:36.348Z, 37.42
2024-04-03T08:14:36.415Z, 37.34
2024-04-03T08:15:36.405Z, 37.29
2024-04-03T08:16:36.400Z, 37.25
2024-04-03T08:17:36.392Z, 37.20
2024-04-03T08:18:36.437Z, 37.16
2024-04-03T08:19:36.426Z, 37.11
2024-04-03T08:20:36.435Z, 37.07
2024-04-03T08:21:36.503Z, 37.02
2024-04-03T08:22:36.486Z, 37.01
2024-04-03T08:23:36.487Z, 36.97
2024-04-03T08:24:36.510Z, 36.93
2024-04-03T08:25:36.503Z, 36.91
2024-04-03T08:26:36.581Z, 36.88
2024-04-03T08:27:36.561Z, 36.83
2024-04-03T08:28:36.619Z, 36.78
2024-04-03T08:29:36.570Z, 36.74
2024-04-03T08:30:36.558Z, 36.70
2024-04-03T08:31:36.569Z, 36.67
2024-04-03T08:32:36.627Z, 36.66
2024-04-03T08:33:40.998Z, 36.65
2024-04-03T08:34:36.612Z, 36.59
2024-04-03T08:35:36.617Z, 36.60
2024-04-03T08:36:36.612Z, 36.57
2024-04-03T08:37:41.360Z, 36.51
2024-04-03T08:38:36.700Z, 36.46
2024-04-03T08:39:36.677Z, 36.45
2024-04-03T08:40:36.785Z, 36.45
2024-04-03T08:41:36.719Z, 36.45
2024-04-03T08:42:36.715Z, 36.41
2024-04-03T08:43:37.191Z, 36.35
2024-04-03T08:44:36.762Z, 36.35
2024-04-03T08:45:36.744Z, 36.33
2024-04-03T08:46:36.756Z, 36.32
2024-04-03T08:47:36.864Z, 36.31
2024-04-03T08:48:36.777Z, 36.26
2024-04-03T08:49:36.872Z, 36.21
2024-04-03T08:50:36.831Z, 36.21
2024-04-03T08:51:36.869Z, 36.19
2024-04-03T08:52:36.879Z, 36.15
2024-04-03T08:53:36.835Z, 36.11
2024-04-03T08:54:36.900Z, 36.06
2024-04-03T08:55:36.861Z, 36.06
2024-04-03T08:56:36.860Z, 36.04
2024-04-03T08:57:36.879Z, 36.01
2024-04-03T08:58:36.889Z, 36.02
2024-04-03T08:59:36.989Z, 36.01
2024-04-03T09:00:45.005Z, 35.94
2024-04-03T09:01:36.981Z, 35.93
2024-04-03T09:02:36.985Z, 35.93
2024-04-03T09:03:37.018Z, 35.81
2024-04-03T09:04:36.973Z, 35.81
2024-04-03T09:05:36.982Z, 35.82
2024-04-03T09:06:37.072Z, 35.77
2024-04-03T09:07:37.044Z, 35.77
2024-04-03T09:08:37.093Z, 35.74
2024-04-03T09:09:37.054Z, 35.72
2024-04-03T09:10:37.072Z, 35.68
2024-04-03T09:11:37.061Z, 35.71
2024-04-03T09:12:37.075Z, 35.68
2024-04-03T09:13:37.068Z, 35.65
2024-04-03T09:14:37.108Z, 35.60
2024-04-03T09:15:37.838Z, 35.58
2024-04-03T09:16:39.055Z, 35.56
2024-04-03T09:17:37.172Z, 35.52
2024-04-03T09:18:37.212Z, 35.51
2024-04-03T09:19:37.182Z, 35.52
2024-04-03T09:20:37.213Z, 35.44
2024-04-03T09:21:37.199Z, 35.41
2024-04-03T09:22:37.190Z, 35.36
2024-04-03T09:23:37.292Z, 35.33
2024-04-03T09:24:37.209Z, 35.36
2024-04-03T09:25:37.294Z, 35.35
2024-04-03T09:26:37.219Z, 35.33
2024-04-03T09:27:37.263Z, 35.31
2024-04-03T09:28:37.287Z, 35.26
2024-04-03T09:29:37.282Z, 35.26
2024-04-03T09:30:37.369Z, 35.24
2024-04-03T09:31:37.336Z, 35.21
2024-04-03T09:32:37.339Z, 35.19
2024-04-03T09:33:37.335Z, 35.18
2024-04-03T09:34:37.372Z, 35.14
2024-04-03T09:35:37.363Z, 35.12
2024-04-03T09:36:37.359Z, 35.10
2024-04-03T09:37:37.465Z, 35.06
2024-04-03T09:38:37.424Z, 35.07
2024-04-03T09:39:37.416Z, 35.04
2024-04-03T09:40:37.504Z, 35.01
2024-04-03T09:41:37.496Z, 34.94
2024-04-03T09:42:37.484Z, 34.94
2024-04-03T09:43:37.472Z, 34.98
2024-04-03T09:44:37.479Z, 34.96
2024-04-03T09:45:37.483Z, 34.97
2024-04-03T09:46:37.485Z, 34.95
2024-04-03T09:47:37.534Z, 34.91
2024-04-03T09:48:37.568Z, 34.90
2024-04-03T09:49:37.547Z, 34.89
2024-04-03T09:50:37.561Z, 34.84
2024-04-03T09:51:37.537Z, 34.79
2024-04-03T09:52:37.542Z, 34.72
2024-04-03T09:53:37.620Z, 34.74
2024-04-03T09:54:37.604Z, 34.75
2024-04-03T09:55:37.599Z, 34.74
2024-04-03T09:56:37.596Z, 34.74
2024-04-03T09:57:37.619Z, 34.70
2024-04-03T09:58:37.700Z, 34.69
2024-04-03T09:59:37.636Z, 34.68
2024-04-03T10:00:37.738Z, 34.66
2024-04-03T10:01:37.716Z, 35.16
2024-04-03T10:02:37.751Z, 36.01
2024-04-03T10:03:37.730Z, 36.29
2024-04-03T10:04:37.725Z, 36.39
2024-04-03T10:05:37.788Z, 36.43
2024-04-03T10:06:37.755Z, 36.31
2024-04-03T10:07:37.754Z, 36.09
2024-04-03T10:08:37.817Z, 35.98
2024-04-03T10:09:37.785Z, 35.96
2024-04-03T10:10:37.888Z, 35.99
2024-04-03T10:11:37.837Z, 35.97
2024-04-03T10:12:37.836Z, 36.00
2024-04-03T10:13:37.846Z, 36.03
2024-04-03T10:14:37.883Z, 36.01
2024-04-03T10:15:37.859Z, 36.01
2024-04-03T10:16:37.858Z, 35.99
2024-04-03T10:17:37.879Z, 36.00
2024-04-03T10:18:37.868Z, 35.98
2024-04-03T10:19:37.868Z, 35.97
2024-04-03T10:20:37.869Z, 35.94
2024-04-03T10:21:37.959Z, 35.91
2024-04-03T10:22:37.940Z, 35.92
2024-04-03T10:23:37.935Z, 35.89
2024-04-03T10:24:37.942Z, 35.86
2024-04-03T10:25:37.938Z, 35.81
2024-04-03T10:26:43.097Z, 35.79
2024-04-03T10:27:37.973Z, 35.76
2024-04-03T10:28:38.086Z, 35.72
2024-04-03T10:29:38.056Z, 35.70
2024-04-03T10:30:38.072Z, 35.65
2024-04-03T10:31:38.043Z, 35.62
2024-04-03T10:32:38.045Z, 35.56
2024-04-03T10:33:38.116Z, 35.57
2024-04-03T10:34:38.075Z, 35.52
2024-04-03T10:35:38.162Z, 35.49
2024-04-03T10:36:38.177Z, 35.46
2024-04-03T10:37:38.154Z, 35.44
2024-04-03T10:38:38.182Z, 35.38
2024-04-03T10:39:38.150Z, 35.37
2024-04-03T10:40:42.614Z, 35.32
2024-04-03T10:41:42.421Z, 35.30
2024-04-03T10:42:38.213Z, 35.25
2024-04-03T10:43:38.218Z, 35.20
2024-04-03T10:44:38.762Z, 35.17
2024-04-03T10:45:38.420Z, 35.15
2024-04-03T10:46:38.388Z, 35.10
2024-04-03T10:47:38.279Z, 35.04
2024-04-03T10:48:38.274Z, 35.00
2024-04-03T10:49:38.297Z, 34.98
2024-04-03T10:50:38.284Z, 34.93
2024-04-03T10:51:38.362Z, 34.89
2024-04-03T10:52:38.336Z, 34.86
2024-04-03T10:53:38.328Z, 34.82
2024-04-03T10:54:38.386Z, 34.77
2024-04-03T10:55:38.356Z, 34.73
2024-04-03T10:56:38.406Z, 34.70
2024-04-03T10:57:38.365Z, 34.64
2024-04-03T10:58:38.440Z, 34.62
2024-04-03T10:59:38.441Z, 34.56
2024-04-03T11:00:38.459Z, 34.47
2024-04-03T11:01:38.421Z, 34.43
2024-04-03T11:02:38.418Z, 34.35
2024-04-03T11:03:38.503Z, 34.29
2024-04-03T11:04:38.426Z, 34.20
2024-04-03T11:05:38.521Z, 34.05
2024-04-03T11:06:38.478Z, 33.90
2024-04-03T11:07:38.465Z, 33.71
2024-04-03T11:08:38.466Z, 33.57
2024-04-03T11:09:38.474Z, 33.45
2024-04-03T11:10:38.569Z, 33.32
2024-04-03T11:11:38.546Z, 33.22
2024-04-03T11:12:38.576Z, 33.17
2024-04-03T11:13:38.559Z, 33.10
2024-04-03T11:14:38.550Z, 33.02
2024-04-03T11:15:38.560Z, 32.96
2024-04-03T11:16:38.600Z, 32.90
2024-04-03T11:17:38.661Z, 32.82
2024-04-03T11:18:38.626Z, 32.78
2024-04-03T11:19:38.683Z, 32.75
2024-04-03T11:20:38.650Z, 32.70
2024-04-03T11:21:38.653Z, 32.64
2024-04-03T11:22:38.676Z, 32.61
2024-04-03T11:23:38.670Z, 32.57
2024-04-03T11:24:38.680Z, 32.53
2024-04-03T11:25:38.772Z, 32.49
2024-04-03T11:26:38.736Z, 32.46
2024-04-03T11:27:38.762Z, 32.44
2024-04-03T11:28:38.739Z, 32.41
2024-04-03T11:29:38.772Z, 32.37
2024-04-03T11:30:38.748Z, 32.34
2024-04-03T11:31:38.759Z, 32.30
2024-04-03T11:32:38.788Z, 32.25
2024-04-03T11:33:38.766Z, 32.22
2024-04-03T11:34:38.883Z, 32.19
2024-04-03T11:35:38.830Z, 32.17
2024-04-03T11:36:38.827Z, 32.13
2024-04-03T11:37:38.827Z, 32.09
2024-04-03T11:38:38.892Z, 32.05
2024-04-03T11:39:38.886Z, 32.02
2024-04-03T11:40:38.855Z, 31.99
2024-04-03T11:41:38.958Z, 31.96
2024-04-03T11:42:38.909Z, 31.92
2024-04-03T11:43:38.926Z, 31.87
2024-04-03T11:44:38.909Z, 31.86
2024-04-03T11:45:38.944Z, 31.83
2024-04-03T11:46:38.945Z, 31.79
2024-04-03T11:47:38.945Z, 31.75
2024-04-03T11:48:38.962Z, 31.74
2024-04-03T11:49:39.093Z, 31.71
2024-04-03T11:50:39.005Z, 31.65
2024-04-03T11:51:39.017Z, 31.60
2024-04-03T11:52:39.059Z, 32.89
2024-04-03T11:53:39.043Z, 37.45
2024-04-03T11:54:39.106Z, 42.42
2024-04-03T11:55:39.095Z, 46.95
2024-04-03T11:56:39.079Z, 51.74
2024-04-03T11:57:39.088Z, 56.24
2024-04-03T11:58:39.080Z, 60.37
2024-04-03T11:59:39.168Z, 64.10
2024-04-03T12:00:39.156Z, 52.06
2024-04-03T12:01:39.145Z, 52.07
2024-04-03T12:02:39.135Z, 53.01
2024-04-03T12:03:39.117Z, 54.84
2024-04-03T12:04:39.191Z, 58.02
2024-04-03T12:05:39.164Z, 63.15
2024-04-03T12:06:39.240Z, 63.36
2024-04-03T12:07:39.210Z, 53.36
2024-04-03T12:08:39.200Z, 53.39
2024-04-03T12:09:39.202Z, 54.55
2024-04-03T12:10:39.246Z, 56.49
2024-04-03T12:11:39.233Z, 57.96
2024-04-03T12:12:39.293Z, 58.87
2024-04-03T12:13:39.281Z, 59.42
2024-04-03T12:14:39.268Z, 59.95
2024-04-03T12:15:39.308Z, 60.09
2024-04-03T12:16:39.549Z, 60.20
2024-04-03T12:17:39.393Z, 60.30
2024-04-03T12:18:39.365Z, 60.29
2024-04-03T12:19:39.363Z, 60.31
2024-04-03T12:20:39.372Z, 60.24
2024-04-03T12:21:39.372Z, 60.18
2024-04-03T12:22:39.453Z, 60.10
2024-04-03T12:23:39.421Z, 59.96
2024-04-03T12:24:39.416Z, 59.96
2024-04-03T12:25:39.479Z, 59.80
2024-04-03T12:26:39.452Z, 59.70
2024-04-03T12:27:39.466Z, 59.56
2024-04-03T12:28:39.509Z, 59.49
2024-04-03T12:29:39.483Z, 59.36